sensor_id;sensor_type;location;lat;lon;timestamp;P1;durP1;ratioP1;P2;durP2;ratioP2
63536;SDS011;49686;51.880;5.632;2023-04-01T00:01:21;8.00;;;3.17;;
63536;SDS011;49686;51.880;5.632;2023-04-01T00:03:47;7.63;;;4.03;;
63536;SDS011;49686;51.880;5.632;2023-04-01T00:06:15;5.05;;;3.40;;
63536;SDS011;49686;51.880;5.632;2023-04-01T00:08:43;4.88;;;4.38;;
63536;SDS011;49686;51.880;5.632;2023-04-01T00:11:11;7.95;;;5.20;;
63536;SDS011;49686;51.880;5.632;2023-04-01T00:13:38;7.55;;;4.00;;
63536;SDS011;49686;51.880;5.632;2023-04-01T00:16:06;5.88;;;2.83;;
63536;SDS011;49686;51.880;5.632;2023-04-01T00:18:47;7.90;;;4.65;;
63536;SDS011;49686;51.880;5.632;2023-04-01T00:21:14;5.78;;;3.83;;
63536;SDS011;49686;51.880;5.632;2023-04-01T00:23:41;8.95;;;6.15;;
63536;SDS011;49686;51.880;5.632;2023-04-01T00:26:08;7.90;;;4.55;;
63536;SDS011;49686;51.880;5.632;2023-04-01T00:28:35;9.00;;;4.53;;
63536;SDS011;49686;51.880;5.632;2023-04-01T00:31:04;5.60;;;4.28;;
63536;SDS011;49686;51.880;5.632;2023-04-01T00:36:06;9.45;;;6.22;;
63536;SDS011;49686;51.880;5.632;2023-04-01T00:38:33;11.57;;;7.90;;
63536;SDS011;49686;51.880;5.632;2023-04-01T00:41:00;13.32;;;7.38;;
63536;SDS011;49686;51.880;5.632;2023-04-01T00:43:27;8.75;;;5.90;;
63536;SDS011;49686;51.880;5.632;2023-04-01T00:45:54;14.00;;;8.55;;
63536;SDS011;49686;51.880;5.632;2023-04-01T00:48:22;12.55;;;8.00;;
63536;SDS011;49686;51.880;5.632;2023-04-01T00:50:53;15.45;;;8.18;;
63536;SDS011;49686;51.880;5.632;2023-04-01T00:53:24;8.63;;;5.53;;
63536;SDS011;49686;51.880;5.632;2023-04-01T00:55:55;10.80;;;6.95;;
63536;SDS011;49686;51.880;5.632;2023-04-01T00:58:26;13.55;;;9.27;;
63536;SDS011;49686;51.880;5.632;2023-04-01T01:00:55;15.25;;;6.47;;
63536;SDS011;49686;51.880;5.632;2023-04-01T01:03:25;11.50;;;6.28;;
63536;SDS011;49686;51.880;5.632;2023-04-01T01:06:02;13.82;;;7.18;;
63536;SDS011;49686;51.880;5.632;2023-04-01T01:08:47;17.60;;;8.45;;
63536;SDS011;49686;51.880;5.632;2023-04-01T01:11:25;15.93;;;8.98;;
63536;SDS011;49686;51.880;5.632;2023-04-01T01:14:10;11.35;;;7.82;;
63536;SDS011;49686;51.880;5.632;2023-04-01T01:16:48;12.35;;;8.25;;
63536;SDS011;49686;51.880;5.632;2023-04-01T01:19:26;10.63;;;6.10;;
63536;SDS011;49686;51.880;5.632;2023-04-01T01:22:19;15.35;;;9.55;;
63536;SDS011;49686;51.880;5.632;2023-04-01T01:25:07;16.40;;;9.35;;
63536;SDS011;49686;51.880;5.632;2023-04-01T01:27:54;16.08;;;7.97;;
63536;SDS011;49686;51.880;5.632;2023-04-01T01:30:32;13.88;;;8.68;;
63536;SDS011;49686;51.880;5.632;2023-04-01T01:33:11;16.00;;;8.07;;
63536;SDS011;49686;51.880;5.632;2023-04-01T01:35:48;11.65;;;5.22;;
63536;SDS011;49686;51.880;5.632;2023-04-01T01:38:18;13.82;;;5.22;;
63536;SDS011;49686;51.880;5.632;2023-04-01T01:40:49;14.32;;;6.47;;
63536;SDS011;49686;51.880;5.632;2023-04-01T01:43:19;14.32;;;4.07;;
63536;SDS011;49686;51.880;5.632;2023-04-01T01:45:49;16.05;;;4.80;;
63536;SDS011;49686;51.880;5.632;2023-04-01T01:48:19;16.83;;;6.05;;
63536;SDS011;49686;51.880;5.632;2023-04-01T01:50:48;15.68;;;5.22;;
63536;SDS011;49686;51.880;5.632;2023-04-01T01:53:17;14.30;;;6.22;;
63536;SDS011;49686;51.880;5.632;2023-04-01T01:55:44;15.63;;;5.03;;
63536;SDS011;49686;51.880;5.632;2023-04-01T01:58:13;12.02;;;5.63;;
63536;SDS011;49686;51.880;5.632;2023-04-01T02:00:45;15.00;;;5.03;;
63536;SDS011;49686;51.880;5.632;2023-04-01T02:03:16;14.32;;;5.07;;
63536;SDS011;49686;51.880;5.632;2023-04-01T02:05:45;15.02;;;5.47;;
63536;SDS011;49686;51.880;5.632;2023-04-01T02:08:15;15.10;;;5.78;;
63536;SDS011;49686;51.880;5.632;2023-04-01T02:10:47;13.25;;;5.13;;
63536;SDS011;49686;51.880;5.632;2023-04-01T02:13:21;14.35;;;5.47;;
63536;SDS011;49686;51.880;5.632;2023-04-01T02:15:52;12.43;;;5.75;;
63536;SDS011;49686;51.880;5.632;2023-04-01T02:18:25;13.13;;;5.78;;
63536;SDS011;49686;51.880;5.632;2023-04-01T02:20:54;15.45;;;6.80;;
63536;SDS011;49686;51.880;5.632;2023-04-01T02:23:23;12.85;;;5.75;;
63536;SDS011;49686;51.880;5.632;2023-04-01T02:25:51;11.15;;;5.88;;
63536;SDS011;49686;51.880;5.632;2023-04-01T02:28:18;9.48;;;4.93;;
63536;SDS011;49686;51.880;5.632;2023-04-01T02:30:46;8.05;;;4.57;;
63536;SDS011;49686;51.880;5.632;2023-04-01T02:33:15;8.98;;;5.13;;
63536;SDS011;49686;51.880;5.632;2023-04-01T02:35:43;9.23;;;4.65;;
63536;SDS011;49686;51.880;5.632;2023-04-01T02:38:10;7.63;;;3.50;;
63536;SDS011;49686;51.880;5.632;2023-04-01T02:40:45;6.82;;;3.50;;
63536;SDS011;49686;51.880;5.632;2023-04-01T02:43:13;9.35;;;4.43;;
63536;SDS011;49686;51.880;5.632;2023-04-01T02:45:41;9.50;;;5.03;;
63536;SDS011;49686;51.880;5.632;2023-04-01T02:48:08;8.18;;;4.35;;
63536;SDS011;49686;51.880;5.632;2023-04-01T02:50:35;8.13;;;4.30;;
63536;SDS011;49686;51.880;5.632;2023-04-01T02:53:02;12.60;;;5.68;;
63536;SDS011;49686;51.880;5.632;2023-04-01T02:55:29;5.85;;;3.97;;
63536;SDS011;49686;51.880;5.632;2023-04-01T02:57:58;9.52;;;4.97;;
63536;SDS011;49686;51.880;5.632;2023-04-01T03:00:25;8.52;;;5.28;;
63536;SDS011;49686;51.880;5.632;2023-04-01T03:02:52;12.10;;;5.90;;
63536;SDS011;49686;51.880;5.632;2023-04-01T03:05:19;12.82;;;5.93;;
63536;SDS011;49686;51.880;5.632;2023-04-01T03:07:46;6.30;;;4.07;;
63536;SDS011;49686;51.880;5.632;2023-04-01T03:10:13;7.30;;;4.80;;
63536;SDS011;49686;51.880;5.632;2023-04-01T03:12:43;6.35;;;3.85;;
63536;SDS011;49686;51.880;5.632;2023-04-01T03:15:12;9.93;;;5.00;;
63536;SDS011;49686;51.880;5.632;2023-04-01T03:17:39;9.77;;;5.38;;
63536;SDS011;49686;51.880;5.632;2023-04-01T03:20:07;6.90;;;4.18;;
63536;SDS011;49686;51.880;5.632;2023-04-01T03:25:03;9.35;;;4.50;;
63536;SDS011;49686;51.880;5.632;2023-04-01T03:27:30;6.28;;;3.75;;
63536;SDS011;49686;51.880;5.632;2023-04-01T03:29:57;11.85;;;5.80;;
63536;SDS011;49686;51.880;5.632;2023-04-01T03:32:25;7.43;;;3.90;;
63536;SDS011;49686;51.880;5.632;2023-04-01T03:34:52;9.80;;;5.20;;
63536;SDS011;49686;51.880;5.632;2023-04-01T03:37:19;10.18;;;6.15;;
63536;SDS011;49686;51.880;5.632;2023-04-01T03:39:46;10.27;;;5.88;;
63536;SDS011;49686;51.880;5.632;2023-04-01T03:42:13;7.07;;;3.70;;
63536;SDS011;49686;51.880;5.632;2023-04-01T03:44:39;8.95;;;5.47;;
63536;SDS011;49686;51.880;5.632;2023-04-01T03:47:06;9.70;;;5.05;;
63536;SDS011;49686;51.880;5.632;2023-04-01T03:49:35;11.02;;;5.47;;
63536;SDS011;49686;51.880;5.632;2023-04-01T03:52:03;12.93;;;6.45;;
63536;SDS011;49686;51.880;5.632;2023-04-01T03:54:30;9.80;;;6.15;;
63536;SDS011;49686;51.880;5.632;2023-04-01T03:56:56;10.73;;;5.75;;
63536;SDS011;49686;51.880;5.632;2023-04-01T03:59:23;11.18;;;6.80;;
63536;SDS011;49686;51.880;5.632;2023-04-01T04:01:50;9.63;;;5.65;;
63536;SDS011;49686;51.880;5.632;2023-04-01T04:04:17;12.07;;;7.78;;
63536;SDS011;49686;51.880;5.632;2023-04-01T04:06:45;17.30;;;8.05;;
63536;SDS011;49686;51.880;5.632;2023-04-01T04:09:12;10.63;;;6.10;;
63536;SDS011;49686;51.880;5.632;2023-04-01T04:11:38;7.15;;;5.25;;
63536;SDS011;49686;51.880;5.632;2023-04-01T04:14:05;12.75;;;7.03;;
63536;SDS011;49686;51.880;5.632;2023-04-01T04:16:34;16.35;;;8.65;;
63536;SDS011;49686;51.880;5.632;2023-04-01T04:19:02;15.05;;;8.90;;
63536;SDS011;49686;51.880;5.632;2023-04-01T04:21:29;13.23;;;8.43;;
63536;SDS011;49686;51.880;5.632;2023-04-01T04:23:57;9.27;;;5.63;;
63536;SDS011;49686;51.880;5.632;2023-04-01T04:26:24;13.70;;;8.65;;
63536;SDS011;49686;51.880;5.632;2023-04-01T04:28:51;7.03;;;4.78;;
63536;SDS011;49686;51.880;5.632;2023-04-01T04:31:19;15.60;;;7.20;;
63536;SDS011;49686;51.880;5.632;2023-04-01T04:33:47;12.38;;;7.00;;
63536;SDS011;49686;51.880;5.632;2023-04-01T04:36:14;13.02;;;6.60;;
63536;SDS011;49686;51.880;5.632;2023-04-01T04:38:41;15.45;;;8.02;;
63536;SDS011;49686;51.880;5.632;2023-04-01T04:41:10;17.92;;;9.15;;
63536;SDS011;49686;51.880;5.632;2023-04-01T04:43:37;14.80;;;8.25;;
63536;SDS011;49686;51.880;5.632;2023-04-01T04:46:04;14.45;;;8.57;;
63536;SDS011;49686;51.880;5.632;2023-04-01T04:48:32;9.10;;;5.55;;
63536;SDS011;49686;51.880;5.632;2023-04-01T04:51:00;13.68;;;8.55;;
63536;SDS011;49686;51.880;5.632;2023-04-01T04:53:27;11.48;;;7.75;;
63536;SDS011;49686;51.880;5.632;2023-04-01T04:55:54;11.40;;;6.65;;
63536;SDS011;49686;51.880;5.632;2023-04-01T04:58:22;12.43;;;6.63;;
63536;SDS011;49686;51.880;5.632;2023-04-01T05:00:49;12.45;;;7.90;;
63536;SDS011;49686;51.880;5.632;2023-04-01T05:03:16;13.13;;;6.95;;
63536;SDS011;49686;51.880;5.632;2023-04-01T05:05:48;14.43;;;8.95;;
63536;SDS011;49686;51.880;5.632;2023-04-01T05:08:16;13.65;;;8.77;;
63536;SDS011;49686;51.880;5.632;2023-04-01T05:10:43;14.02;;;7.85;;
63536;SDS011;49686;51.880;5.632;2023-04-01T05:13:10;14.38;;;9.00;;
63536;SDS011;49686;51.880;5.632;2023-04-01T05:15:38;19.30;;;10.27;;
63536;SDS011;49686;51.880;5.632;2023-04-01T05:18:04;17.45;;;8.77;;
63536;SDS011;49686;51.880;5.632;2023-04-01T05:20:31;19.35;;;9.60;;
63536;SDS011;49686;51.880;5.632;2023-04-01T05:22:58;14.88;;;8.93;;
63536;SDS011;49686;51.880;5.632;2023-04-01T05:25:26;12.50;;;7.07;;
63536;SDS011;49686;51.880;5.632;2023-04-01T05:27:53;18.35;;;8.63;;
63536;SDS011;49686;51.880;5.632;2023-04-01T05:30:20;18.42;;;8.80;;
63536;SDS011;49686;51.880;5.632;2023-04-01T05:32:48;20.88;;;9.60;;
63536;SDS011;49686;51.880;5.632;2023-04-01T05:35:15;22.03;;;9.47;;
63536;SDS011;49686;51.880;5.632;2023-04-01T05:37:42;18.42;;;8.15;;
63536;SDS011;49686;51.880;5.632;2023-04-01T05:40:09;20.25;;;9.05;;
63536;SDS011;49686;51.880;5.632;2023-04-01T05:42:36;19.15;;;8.05;;
63536;SDS011;49686;51.880;5.632;2023-04-01T05:45:04;19.20;;;8.35;;
63536;SDS011;49686;51.880;5.632;2023-04-01T05:47:31;17.52;;;7.57;;
63536;SDS011;49686;51.880;5.632;2023-04-01T05:50:00;17.00;;;6.07;;
63536;SDS011;49686;51.880;5.632;2023-04-01T05:52:27;16.25;;;6.68;;
63536;SDS011;49686;51.880;5.632;2023-04-01T05:54:53;15.25;;;6.03;;
63536;SDS011;49686;51.880;5.632;2023-04-01T05:57:20;12.32;;;5.43;;
63536;SDS011;49686;51.880;5.632;2023-04-01T05:59:47;13.35;;;4.82;;
63536;SDS011;49686;51.880;5.632;2023-04-01T06:02:16;16.15;;;6.55;;
63536;SDS011;49686;51.880;5.632;2023-04-01T06:04:44;15.57;;;6.10;;
63536;SDS011;49686;51.880;5.632;2023-04-01T06:07:12;16.40;;;6.10;;
63536;SDS011;49686;51.880;5.632;2023-04-01T06:09:41;14.63;;;6.45;;
63536;SDS011;49686;51.880;5.632;2023-04-01T06:15:07;21.50;;;7.80;;
63536;SDS011;49686;51.880;5.632;2023-04-01T06:17:52;20.80;;;8.52;;
63536;SDS011;49686;51.880;5.632;2023-04-01T06:20:35;20.45;;;8.00;;
63536;SDS011;49686;51.880;5.632;2023-04-01T06:23:16;21.77;;;9.65;;
63536;SDS011;49686;51.880;5.632;2023-04-01T06:26:03;20.25;;;9.02;;
63536;SDS011;49686;51.880;5.632;2023-04-01T06:28:46;23.00;;;8.95;;
63536;SDS011;49686;51.880;5.632;2023-04-01T06:31:38;20.20;;;9.90;;
63536;SDS011;49686;51.880;5.632;2023-04-01T06:34:25;23.13;;;10.43;;
63536;SDS011;49686;51.880;5.632;2023-04-01T06:37:07;31.25;;;11.90;;
63536;SDS011;49686;51.880;5.632;2023-04-01T06:40:03;27.08;;;11.35;;
63536;SDS011;49686;51.880;5.632;2023-04-01T06:42:51;23.15;;;10.13;;
63536;SDS011;49686;51.880;5.632;2023-04-01T06:45:29;28.33;;;11.93;;
63536;SDS011;49686;51.880;5.632;2023-04-01T06:48:12;28.42;;;12.70;;
63536;SDS011;49686;51.880;5.632;2023-04-01T06:50:51;29.27;;;12.52;;
63536;SDS011;49686;51.880;5.632;2023-04-01T06:53:23;28.60;;;12.40;;
63536;SDS011;49686;51.880;5.632;2023-04-01T06:55:59;25.08;;;12.23;;
63536;SDS011;49686;51.880;5.632;2023-04-01T06:58:30;19.85;;;9.75;;
63536;SDS011;49686;51.880;5.632;2023-04-01T07:01:01;22.80;;;10.35;;
63536;SDS011;49686;51.880;5.632;2023-04-01T07:03:30;24.80;;;11.77;;
63536;SDS011;49686;51.880;5.632;2023-04-01T07:06:01;29.88;;;12.50;;
63536;SDS011;49686;51.880;5.632;2023-04-01T07:08:30;24.55;;;11.40;;
63536;SDS011;49686;51.880;5.632;2023-04-01T07:11:04;21.63;;;11.02;;
63536;SDS011;49686;51.880;5.632;2023-04-01T07:13:33;25.52;;;12.02;;
63536;SDS011;49686;51.880;5.632;2023-04-01T07:16:08;21.83;;;10.30;;
63536;SDS011;49686;51.880;5.632;2023-04-01T07:18:40;23.08;;;11.48;;
63536;SDS011;49686;51.880;5.632;2023-04-01T07:21:20;23.33;;;10.88;;
63536;SDS011;49686;51.880;5.632;2023-04-01T07:23:51;21.73;;;11.27;;
63536;SDS011;49686;51.880;5.632;2023-04-01T07:26:24;27.08;;;12.52;;
63536;SDS011;49686;51.880;5.632;2023-04-01T07:28:51;24.40;;;11.38;;
63536;SDS011;49686;51.880;5.632;2023-04-01T07:31:20;21.43;;;10.80;;
63536;SDS011;49686;51.880;5.632;2023-04-01T07:33:58;16.67;;;9.30;;
63536;SDS011;49686;51.880;5.632;2023-04-01T07:36:32;18.40;;;9.38;;
63536;SDS011;49686;51.880;5.632;2023-04-01T07:39:06;22.20;;;11.65;;
63536;SDS011;49686;51.880;5.632;2023-04-01T07:41:45;23.87;;;11.33;;
63536;SDS011;49686;51.880;5.632;2023-04-01T07:44:20;23.85;;;11.45;;
63536;SDS011;49686;51.880;5.632;2023-04-01T07:46:56;20.38;;;10.85;;
63536;SDS011;49686;51.880;5.632;2023-04-01T07:49:36;18.42;;;9.35;;
63536;SDS011;49686;51.880;5.632;2023-04-01T07:52:12;20.87;;;9.67;;
63536;SDS011;49686;51.880;5.632;2023-04-01T07:54:44;18.48;;;9.55;;
63536;SDS011;49686;51.880;5.632;2023-04-01T07:57:18;21.25;;;10.70;;
63536;SDS011;49686;51.880;5.632;2023-04-01T07:59:51;16.85;;;8.60;;
63536;SDS011;49686;51.880;5.632;2023-04-01T08:02:29;14.63;;;8.23;;
63536;SDS011;49686;51.880;5.632;2023-04-01T08:05:09;15.63;;;8.88;;
63536;SDS011;49686;51.880;5.632;2023-04-01T08:07:45;18.13;;;9.80;;
63536;SDS011;49686;51.880;5.632;2023-04-01T08:10:20;20.02;;;10.35;;
63536;SDS011;49686;51.880;5.632;2023-04-01T08:12:55;19.83;;;10.85;;
63536;SDS011;49686;51.880;5.632;2023-04-01T08:15:32;21.33;;;10.52;;
63536;SDS011;49686;51.880;5.632;2023-04-01T08:18:07;17.38;;;9.68;;
63536;SDS011;49686;51.880;5.632;2023-04-01T08:20:41;19.08;;;9.95;;
63536;SDS011;49686;51.880;5.632;2023-04-01T08:23:14;18.75;;;9.60;;
63536;SDS011;49686;51.880;5.632;2023-04-01T08:25:45;15.02;;;7.70;;
63536;SDS011;49686;51.880;5.632;2023-04-01T08:28:19;17.92;;;9.50;;
63536;SDS011;49686;51.880;5.632;2023-04-01T08:30:51;19.42;;;10.63;;
63536;SDS011;49686;51.880;5.632;2023-04-01T08:33:21;16.30;;;8.40;;
63536;SDS011;49686;51.880;5.632;2023-04-01T08:35:52;17.67;;;9.27;;
63536;SDS011;49686;51.880;5.632;2023-04-01T08:38:25;13.77;;;6.90;;
63536;SDS011;49686;51.880;5.632;2023-04-01T08:40:58;14.60;;;8.63;;
63536;SDS011;49686;51.880;5.632;2023-04-01T08:46:19;15.75;;;8.43;;
63536;SDS011;49686;51.880;5.632;2023-04-01T08:49:10;13.60;;;8.70;;
63536;SDS011;49686;51.880;5.632;2023-04-01T08:51:49;16.83;;;9.38;;
63536;SDS011;49686;51.880;5.632;2023-04-01T08:54:33;14.38;;;8.50;;
63536;SDS011;49686;51.880;5.632;2023-04-01T08:57:12;16.05;;;8.70;;
63536;SDS011;49686;51.880;5.632;2023-04-01T08:59:57;14.25;;;8.60;;
63536;SDS011;49686;51.880;5.632;2023-04-01T09:05:36;13.48;;;7.25;;
63536;SDS011;49686;51.880;5.632;2023-04-01T09:08:15;18.08;;;8.70;;
63536;SDS011;49686;51.880;5.632;2023-04-01T09:10:56;13.90;;;7.65;;
63536;SDS011;49686;51.880;5.632;2023-04-01T09:13:45;16.65;;;8.60;;
63536;SDS011;49686;51.880;5.632;2023-04-01T09:16:28;13.75;;;7.50;;
63536;SDS011;49686;51.880;5.632;2023-04-01T09:19:17;16.42;;;8.95;;
63536;SDS011;49686;51.880;5.632;2023-04-01T09:25:00;18.80;;;9.50;;
63536;SDS011;49686;51.880;5.632;2023-04-01T09:27:43;16.75;;;8.35;;
63536;SDS011;49686;51.880;5.632;2023-04-01T09:36:13;17.20;;;9.05;;
63536;SDS011;49686;51.880;5.632;2023-04-01T09:38:54;21.07;;;10.43;;
63536;SDS011;49686;51.880;5.632;2023-04-01T09:41:27;20.75;;;10.23;;
63536;SDS011;49686;51.880;5.632;2023-04-01T09:44:00;23.15;;;11.18;;
63536;SDS011;49686;51.880;5.632;2023-04-01T09:46:32;19.30;;;10.10;;
63536;SDS011;49686;51.880;5.632;2023-04-01T09:51:50;17.85;;;9.48;;
63536;SDS011;49686;51.880;5.632;2023-04-01T09:54:34;17.60;;;9.20;;
63536;SDS011;49686;51.880;5.632;2023-04-01T09:57:22;20.08;;;10.43;;
63536;SDS011;49686;51.880;5.632;2023-04-01T10:00:19;23.23;;;10.75;;
63536;SDS011;49686;51.880;5.632;2023-04-01T10:03:20;15.35;;;8.10;;
63536;SDS011;49686;51.880;5.632;2023-04-01T10:12:16;24.33;;;11.95;;
63536;SDS011;49686;51.880;5.632;2023-04-01T10:15:17;20.27;;;11.43;;
63536;SDS011;49686;51.880;5.632;2023-04-01T10:18:05;23.85;;;12.50;;
63536;SDS011;49686;51.880;5.632;2023-04-01T10:20:58;25.15;;;12.75;;
63536;SDS011;49686;51.880;5.632;2023-04-01T10:23:45;26.55;;;13.98;;
63536;SDS011;49686;51.880;5.632;2023-04-01T10:38:37;21.98;;;11.60;;
63536;SDS011;49686;51.880;5.632;2023-04-01T10:47:19;15.95;;;9.48;;
63536;SDS011;49686;51.880;5.632;2023-04-01T10:55:55;16.77;;;9.80;;
63536;SDS011;49686;51.880;5.632;2023-04-01T10:59:06;15.40;;;9.60;;
63536;SDS011;49686;51.880;5.632;2023-04-01T11:14:32;14.73;;;9.60;;
63536;SDS011;49686;51.880;5.632;2023-04-01T11:17:22;11.02;;;8.77;;
63536;SDS011;49686;51.880;5.632;2023-04-01T11:20:15;14.23;;;9.13;;
63536;SDS011;49686;51.880;5.632;2023-04-01T11:23:21;10.85;;;7.88;;
63536;SDS011;49686;51.880;5.632;2023-04-01T11:26:02;9.25;;;7.43;;
63536;SDS011;49686;51.880;5.632;2023-04-01T11:28:47;9.80;;;7.93;;
63536;SDS011;49686;51.880;5.632;2023-04-01T11:31:47;10.43;;;7.22;;
63536;SDS011;49686;51.880;5.632;2023-04-01T11:34:26;9.57;;;7.13;;
63536;SDS011;49686;51.880;5.632;2023-04-01T11:37:08;8.57;;;7.30;;
63536;SDS011;49686;51.880;5.632;2023-04-01T11:39:49;9.45;;;6.95;;
63536;SDS011;49686;51.880;5.632;2023-04-01T11:45:00;9.68;;;7.07;;
63536;SDS011;49686;51.880;5.632;2023-04-01T11:47:47;9.73;;;7.13;;
63536;SDS011;49686;51.880;5.632;2023-04-01T11:50:26;5.95;;;4.07;;
63536;SDS011;49686;51.880;5.632;2023-04-01T11:53:14;5.05;;;3.67;;
63536;SDS011;49686;51.880;5.632;2023-04-01T11:55:50;5.65;;;3.75;;
63536;SDS011;49686;51.880;5.632;2023-04-01T12:01:12;6.20;;;5.10;;
63536;SDS011;49686;51.880;5.632;2023-04-01T12:03:54;6.82;;;4.38;;
63536;SDS011;49686;51.880;5.632;2023-04-01T12:06:39;6.00;;;3.47;;
63536;SDS011;49686;51.880;5.632;2023-04-01T12:09:16;5.80;;;4.20;;
63536;SDS011;49686;51.880;5.632;2023-04-01T12:11:52;4.28;;;3.20;;
63536;SDS011;49686;51.880;5.632;2023-04-01T12:14:33;5.30;;;3.70;;
63536;SDS011;49686;51.880;5.632;2023-04-01T12:17:09;5.10;;;3.63;;
63536;SDS011;49686;51.880;5.632;2023-04-01T12:19:43;5.30;;;4.07;;
63536;SDS011;49686;51.880;5.632;2023-04-01T12:22:20;5.78;;;3.65;;
63536;SDS011;49686;51.880;5.632;2023-04-01T12:25:02;4.97;;;3.90;;
63536;SDS011;49686;51.880;5.632;2023-04-01T12:27:43;6.18;;;4.20;;
63536;SDS011;49686;51.880;5.632;2023-04-01T12:33:18;3.05;;;2.03;;
63536;SDS011;49686;51.880;5.632;2023-04-01T12:35:55;4.13;;;1.88;;
63536;SDS011;49686;51.880;5.632;2023-04-01T12:38:32;2.45;;;2.20;;
63536;SDS011;49686;51.880;5.632;2023-04-01T12:41:09;2.50;;;2.05;;
63536;SDS011;49686;51.880;5.632;2023-04-01T12:47:09;3.80;;;2.60;;
63536;SDS011;49686;51.880;5.632;2023-04-01T12:50:05;4.07;;;3.05;;
63536;SDS011;49686;51.880;5.632;2023-04-01T12:52:55;4.50;;;2.70;;
63536;SDS011;49686;51.880;5.632;2023-04-01T12:55:38;3.05;;;2.60;;
63536;SDS011;49686;51.880;5.632;2023-04-01T13:01:16;4.97;;;3.30;;
63536;SDS011;49686;51.880;5.632;2023-04-01T13:04:03;4.70;;;3.33;;
63536;SDS011;49686;51.880;5.632;2023-04-01T13:06:56;4.47;;;3.10;;
63536;SDS011;49686;51.880;5.632;2023-04-01T13:09:33;4.70;;;3.35;;
63536;SDS011;49686;51.880;5.632;2023-04-01T13:12:13;5.35;;;3.25;;
63536;SDS011;49686;51.880;5.632;2023-04-01T13:17:50;4.20;;;2.90;;
63536;SDS011;49686;51.880;5.632;2023-04-01T13:20:27;3.55;;;2.03;;
63536;SDS011;49686;51.880;5.632;2023-04-01T13:23:06;1.20;;;1.10;;
63536;SDS011;49686;51.880;5.632;2023-04-01T13:25:42;1.02;;;0.93;;
63536;SDS011;49686;51.880;5.632;2023-04-01T13:28:20;2.15;;;2.05;;
63536;SDS011;49686;51.880;5.632;2023-04-01T13:30:51;0.90;;;0.90;;
63536;SDS011;49686;51.880;5.632;2023-04-01T13:33:25;1.42;;;1.30;;
63536;SDS011;49686;51.880;5.632;2023-04-01T13:36:00;2.15;;;1.40;;
63536;SDS011;49686;51.880;5.632;2023-04-01T13:38:41;2.10;;;1.52;;
63536;SDS011;49686;51.880;5.632;2023-04-01T13:41:20;1.40;;;1.30;;
63536;SDS011;49686;51.880;5.632;2023-04-01T13:43:55;2.15;;;1.80;;
63536;SDS011;49686;51.880;5.632;2023-04-01T13:46:34;2.45;;;1.63;;
63536;SDS011;49686;51.880;5.632;2023-04-01T13:49:19;2.72;;;2.00;;
63536;SDS011;49686;51.880;5.632;2023-04-01T13:52:00;2.30;;;1.75;;
63536;SDS011;49686;51.880;5.632;2023-04-01T13:54:55;2.53;;;2.20;;
63536;SDS011;49686;51.880;5.632;2023-04-01T13:57:48;4.03;;;2.20;;
63536;SDS011;49686;51.880;5.632;2023-04-01T14:00:27;3.03;;;2.42;;
63536;SDS011;49686;51.880;5.632;2023-04-01T14:03:13;4.43;;;3.15;;
63536;SDS011;49686;51.880;5.632;2023-04-01T14:05:54;4.88;;;3.53;;
63536;SDS011;49686;51.880;5.632;2023-04-01T14:08:30;5.78;;;3.72;;
63536;SDS011;49686;51.880;5.632;2023-04-01T14:11:13;5.88;;;3.97;;
63536;SDS011;49686;51.880;5.632;2023-04-01T14:13:48;6.30;;;3.72;;
63536;SDS011;49686;51.880;5.632;2023-04-01T14:16:47;6.07;;;4.13;;
63536;SDS011;49686;51.880;5.632;2023-04-01T14:19:38;8.32;;;4.43;;
63536;SDS011;49686;51.880;5.632;2023-04-01T14:22:31;6.57;;;4.45;;
63536;SDS011;49686;51.880;5.632;2023-04-01T14:28:06;7.13;;;4.55;;
63536;SDS011;49686;51.880;5.632;2023-04-01T14:30:43;7.13;;;4.40;;
63536;SDS011;49686;51.880;5.632;2023-04-01T14:33:25;7.07;;;5.00;;
63536;SDS011;49686;51.880;5.632;2023-04-01T14:36:02;6.22;;;3.92;;
63536;SDS011;49686;51.880;5.632;2023-04-01T14:38:48;6.35;;;4.15;;
63536;SDS011;49686;51.880;5.632;2023-04-01T14:41:25;7.50;;;4.15;;
63536;SDS011;49686;51.880;5.632;2023-04-01T14:47:24;2.65;;;2.25;;
63536;SDS011;49686;51.880;5.632;2023-04-01T14:50:03;3.90;;;2.33;;
63536;SDS011;49686;51.880;5.632;2023-04-01T14:52:32;5.15;;;2.88;;
63536;SDS011;49686;51.880;5.632;2023-04-01T14:55:02;5.40;;;2.85;;
63536;SDS011;49686;51.880;5.632;2023-04-01T14:57:53;6.40;;;3.03;;
63536;SDS011;49686;51.880;5.632;2023-04-01T15:00:26;5.45;;;2.95;;
63536;SDS011;49686;51.880;5.632;2023-04-01T15:02:58;4.80;;;2.97;;
63536;SDS011;49686;51.880;5.632;2023-04-01T15:05:38;5.28;;;2.92;;
63536;SDS011;49686;51.880;5.632;2023-04-01T15:08:14;6.22;;;2.95;;
63536;SDS011;49686;51.880;5.632;2023-04-01T15:10:49;5.82;;;3.22;;
63536;SDS011;49686;51.880;5.632;2023-04-01T15:19:11;4.90;;;2.88;;
63536;SDS011;49686;51.880;5.632;2023-04-01T15:24:37;4.75;;;2.53;;
63536;SDS011;49686;51.880;5.632;2023-04-01T15:27:20;4.43;;;2.60;;
63536;SDS011;49686;51.880;5.632;2023-04-01T15:30:01;5.32;;;3.05;;
63536;SDS011;49686;51.880;5.632;2023-04-01T15:33:06;3.55;;;2.70;;
63536;SDS011;49686;51.880;5.632;2023-04-01T15:35:45;4.78;;;2.63;;
63536;SDS011;49686;51.880;5.632;2023-04-01T15:38:19;4.35;;;3.03;;
63536;SDS011;49686;51.880;5.632;2023-04-01T15:40:53;7.30;;;5.40;;
63536;SDS011;49686;51.880;5.632;2023-04-01T15:43:27;4.45;;;3.08;;
63536;SDS011;49686;51.880;5.632;2023-04-01T15:46:09;4.50;;;3.28;;
63536;SDS011;49686;51.880;5.632;2023-04-01T15:48:48;7.32;;;5.13;;
63536;SDS011;49686;51.880;5.632;2023-04-01T15:54:23;12.27;;;9.70;;
63536;SDS011;49686;51.880;5.632;2023-04-01T15:57:08;13.30;;;9.40;;
63536;SDS011;49686;51.880;5.632;2023-04-01T15:59:49;54.25;;;34.97;;
63536;SDS011;49686;51.880;5.632;2023-04-01T16:02:34;11.55;;;9.55;;
63536;SDS011;49686;51.880;5.632;2023-04-01T16:05:09;9.23;;;8.30;;
63536;SDS011;49686;51.880;5.632;2023-04-01T16:07:55;9.20;;;8.02;;
63536;SDS011;49686;51.880;5.632;2023-04-01T16:10:33;7.72;;;6.65;;
63536;SDS011;49686;51.880;5.632;2023-04-01T16:13:22;8.43;;;7.07;;
63536;SDS011;49686;51.880;5.632;2023-04-01T16:15:57;10.10;;;8.75;;
63536;SDS011;49686;51.880;5.632;2023-04-01T16:18:37;13.48;;;10.90;;
63536;SDS011;49686;51.880;5.632;2023-04-01T16:21:21;8.25;;;6.25;;
63536;SDS011;49686;51.880;5.632;2023-04-01T16:24:00;7.75;;;5.82;;
63536;SDS011;49686;51.880;5.632;2023-04-01T16:26:36;7.15;;;6.15;;
63536;SDS011;49686;51.880;5.632;2023-04-01T16:29:10;6.70;;;5.15;;
63536;SDS011;49686;51.880;5.632;2023-04-01T16:31:45;6.60;;;5.70;;
63536;SDS011;49686;51.880;5.632;2023-04-01T16:34:18;5.10;;;4.25;;
63536;SDS011;49686;51.880;5.632;2023-04-01T16:36:52;21.52;;;19.27;;
63536;SDS011;49686;51.880;5.632;2023-04-01T16:39:28;6.63;;;5.00;;
63536;SDS011;49686;51.880;5.632;2023-04-01T16:42:08;9.63;;;8.65;;
63536;SDS011;49686;51.880;5.632;2023-04-01T16:44:48;8.73;;;7.25;;
63536;SDS011;49686;51.880;5.632;2023-04-01T16:47:23;7.40;;;5.85;;
63536;SDS011;49686;51.880;5.632;2023-04-01T16:49:56;8.60;;;7.15;;
63536;SDS011;49686;51.880;5.632;2023-04-01T16:52:34;7.28;;;6.55;;
63536;SDS011;49686;51.880;5.632;2023-04-01T16:55:13;7.45;;;6.05;;
63536;SDS011;49686;51.880;5.632;2023-04-01T16:57:45;7.32;;;6.53;;
63536;SDS011;49686;51.880;5.632;2023-04-01T17:00:16;7.93;;;4.75;;
63536;SDS011;49686;51.880;5.632;2023-04-01T17:02:52;13.02;;;11.73;;
63536;SDS011;49686;51.880;5.632;2023-04-01T17:05:36;6.40;;;5.25;;
63536;SDS011;49686;51.880;5.632;2023-04-01T17:08:15;12.55;;;9.85;;
63536;SDS011;49686;51.880;5.632;2023-04-01T17:10:53;6.85;;;5.85;;